createdAt,value
2018-07-25T00:00:36.926Z,88.90
2018-07-25T00:03:07.597Z,88.80
2018-07-25T00:05:38.078Z,89.20
2018-07-25T00:08:09.051Z,89.50
2018-07-25T00:10:44.818Z,90.00
2018-07-25T00:13:15.370Z,90.40
2018-07-25T00:15:45.759Z,90.30
2018-07-25T00:18:16.285Z,90.10
2018-07-25T00:20:46.749Z,90.30
2018-07-25T00:23:17.706Z,89.80
2018-07-25T00:25:48.242Z,90.00
2018-07-25T00:28:18.710Z,90.30
2018-07-25T00:30:49.561Z,90.40
2018-07-25T00:33:19.990Z,90.30
2018-07-25T00:35:50.524Z,90.30
2018-07-25T00:38:20.924Z,90.50
2018-07-25T00:40:51.424Z,90.60
2018-07-25T00:43:22.443Z,90.50
2018-07-25T00:45:52.883Z,90.70
2018-07-25T00:48:23.362Z,90.80
2018-07-25T00:50:54.206Z,91.00
2018-07-25T00:53:24.668Z,90.90
2018-07-25T00:55:55.185Z,91.30
2018-07-25T00:58:26.294Z,91.70
2018-07-25T01:00:57.158Z,91.70
2018-07-25T01:05:57.313Z,92.10
2018-07-25T01:08:28.281Z,92.10
2018-07-25T01:10:58.789Z,92.10
2018-07-25T01:13:29.455Z,92.50
2018-07-25T01:18:33.957Z,92.90
2018-07-25T01:21:04.321Z,92.70
2018-07-25T01:23:35.429Z,92.90
2018-07-25T01:26:05.830Z,93.00
2018-07-25T01:28:36.378Z,93.90
2018-07-25T01:31:06.753Z,94.10
2018-07-25T01:33:37.097Z,94.40
2018-07-25T01:36:08.070Z,94.60
2018-07-25T01:38:38.577Z,94.90
2018-07-25T01:41:08.901Z,95.80
2018-07-25T01:43:39.611Z,96.10
2018-07-25T01:46:09.970Z,96.40
2018-07-25T01:51:10.080Z,96.70
2018-07-25T01:53:40.948Z,97.10
2018-07-25T01:56:11.245Z,97.00
2018-07-25T01:58:41.726Z,97.30
2018-07-25T02:01:12.280Z,97.20
2018-07-25T02:03:42.826Z,97.50
2018-07-25T02:06:13.188Z,97.50
2018-07-25T02:08:43.901Z,98.10
2018-07-25T02:11:14.615Z,98.80
2018-07-25T02:13:45.166Z,99.00
2018-07-25T02:16:15.741Z,99.60
2018-07-25T02:18:46.055Z,99.90
2018-07-25T02:21:16.401Z,99.90
2018-07-25T02:23:46.691Z,99.90
2018-07-25T02:26:17.518Z,99.90
2018-07-25T02:28:48.073Z,99.90
2018-07-25T02:33:54.543Z,99.90
2018-07-25T02:36:25.293Z,99.90
2018-07-25T02:38:55.709Z,99.90
2018-07-25T02:41:26.109Z,99.90
2018-07-25T02:43:57.057Z,99.90
2018-07-25T02:46:27.525Z,99.90
2018-07-25T02:48:58.384Z,99.90
2018-07-25T02:51:28.900Z,99.90
2018-07-25T02:53:59.466Z,99.90
2018-07-25T02:56:29.712Z,99.90
2018-07-25T02:59:00.553Z,99.90
2018-07-25T03:01:30.808Z,99.90
2018-07-25T03:04:01.594Z,99.90
2018-07-25T03:06:31.868Z,99.90
2018-07-25T03:09:03.432Z,99.90
2018-07-25T03:11:33.976Z,99.90
2018-07-25T03:14:04.776Z,99.90
2018-07-25T03:16:35.153Z,99.90
2018-07-25T03:19:05.616Z,99.90
2018-07-25T03:21:36.104Z,99.90
2018-07-25T03:24:06.872Z,99.90
2018-07-25T03:26:37.227Z,99.90
2018-07-25T03:29:07.729Z,99.90
2018-07-25T03:31:38.264Z,99.90
2018-07-25T03:34:08.585Z,99.90
2018-07-25T03:36:38.981Z,99.90
2018-07-25T03:39:09.906Z,99.90
2018-07-25T03:41:40.436Z,99.90
2018-07-25T03:44:10.808Z,99.90
2018-07-25T03:46:41.112Z,99.90
2018-07-25T03:49:12.018Z,99.90
2018-07-25T03:51:42.342Z,99.90
2018-07-25T03:54:12.645Z,99.90
2018-07-25T03:59:13.206Z,99.90
2018-07-25T04:01:43.633Z,99.90
2018-07-25T04:04:13.968Z,99.90
2018-07-25T04:06:44.493Z,99.90
2018-07-25T04:09:14.989Z,99.90
2018-07-25T04:11:45.232Z,99.90
2018-07-25T04:14:16.103Z,99.90
2018-07-25T04:16:46.550Z,99.90
2018-07-25T04:19:16.865Z,99.90
2018-07-25T04:21:47.129Z,99.90
2018-07-25T04:24:17.936Z,99.90
2018-07-25T04:26:48.221Z,99.90
2018-07-25T04:29:19.141Z,99.90
2018-07-25T04:31:49.569Z,99.90
2018-07-25T04:34:20.107Z,99.90
2018-07-25T04:36:50.638Z,99.90
2018-07-25T04:39:21.002Z,99.90
2018-07-25T04:41:51.402Z,99.90
2018-07-25T04:46:51.873Z,99.90
2018-07-25T04:49:22.299Z,99.90
2018-07-25T04:51:53.361Z,99.90
2018-07-25T04:54:23.814Z,99.90
2018-07-25T04:56:54.237Z,99.90
2018-07-25T04:59:24.630Z,99.90
2018-07-25T05:01:55.467Z,99.90
2018-07-25T05:04:26.077Z,99.90
2018-07-25T05:06:56.409Z,99.90
2018-07-25T05:09:27.460Z,99.90
2018-07-25T05:11:58.410Z,99.90
2018-07-25T05:14:28.834Z,99.90
2018-07-25T05:16:59.286Z,99.90
2018-07-25T05:19:29.821Z,99.90
2018-07-25T05:22:00.241Z,99.90
2018-07-25T05:24:30.774Z,99.90
2018-07-25T05:27:01.425Z,99.90
2018-07-25T05:29:31.765Z,99.90
2018-07-25T05:32:02.086Z,99.90
2018-07-25T05:34:32.496Z,99.90
2018-07-25T05:37:03.227Z,99.90
2018-07-25T05:39:33.765Z,99.90
2018-07-25T05:42:05.101Z,99.90
2018-07-25T05:44:35.669Z,99.90
2018-07-25T05:47:05.854Z,99.90
2018-07-25T05:49:36.439Z,99.90
2018-07-25T05:52:07.503Z,99.90
2018-07-25T05:54:37.773Z,99.90
2018-07-25T05:57:08.265Z,99.90
2018-07-25T05:59:38.698Z,99.90
2018-07-25T06:02:09.854Z,99.90
2018-07-25T06:04:40.252Z,99.90
2018-07-25T06:07:10.735Z,99.90
2018-07-25T06:09:41.230Z,99.90
2018-07-25T06:12:13.082Z,99.90
2018-07-25T06:14:43.575Z,99.90
2018-07-25T06:17:14.241Z,99.90
2018-07-25T06:19:44.977Z,99.90
2018-07-25T06:22:15.649Z,99.90
2018-07-25T06:24:46.873Z,99.90
2018-07-25T06:27:18.685Z,99.90
2018-07-25T06:29:49.126Z,99.90
2018-07-25T06:32:19.709Z,99.90
2018-07-25T06:34:50.273Z,99.90
2018-07-25T06:37:20.865Z,99.90
2018-07-25T06:39:51.345Z,99.90
2018-07-25T06:44:52.169Z,99.90
2018-07-25T06:47:22.649Z,99.90
2018-07-25T06:49:53.164Z,99.90
2018-07-25T06:52:23.747Z,99.90
2018-07-25T06:54:54.551Z,99.90
2018-07-25T06:57:24.991Z,99.90
2018-07-25T06:59:55.561Z,99.90
2018-07-25T07:02:26.429Z,99.90
2018-07-25T07:04:57.059Z,99.90
2018-07-25T07:09:58.121Z,99.30
2018-07-25T07:14:58.136Z,99.40
2018-07-25T07:17:28.622Z,99.30
2018-07-25T07:19:59.517Z,98.30
2018-07-25T07:22:30.053Z,98.00
2018-07-25T07:25:00.350Z,97.50
2018-07-25T07:27:30.752Z,97.00
2018-07-25T07:30:01.177Z,94.60
2018-07-25T07:32:31.894Z,94.90
2018-07-25T07:35:02.552Z,93.90
2018-07-25T07:37:33.256Z,94.10
2018-07-25T07:40:03.662Z,94.20
2018-07-25T07:42:34.277Z,93.60
2018-07-25T07:45:04.978Z,92.80
2018-07-25T07:47:35.523Z,92.80
2018-07-25T07:50:06.785Z,92.20
2018-07-25T07:52:38.779Z,91.60
2018-07-25T07:55:09.680Z,92.00
2018-07-25T07:57:40.173Z,91.10
2018-07-25T08:00:10.621Z,90.80
2018-07-25T08:02:41.389Z,90.20
2018-07-25T08:05:11.807Z,88.30
2018-07-25T08:07:42.398Z,87.50
2018-07-25T08:10:12.909Z,85.80
2018-07-25T08:12:44.661Z,84.50
2018-07-25T08:15:15.068Z,84.20
2018-07-25T08:17:46.685Z,83.40
2018-07-25T08:20:17.861Z,81.70
2018-07-25T08:22:48.299Z,81.00
2018-07-25T08:25:18.851Z,82.10
2018-07-25T08:27:49.368Z,82.40
2018-07-25T08:30:20.018Z,81.50
2018-07-25T08:32:50.528Z,81.20
2018-07-25T08:35:21.028Z,79.70
2018-07-25T08:37:51.547Z,79.10
2018-07-25T08:40:22.412Z,79.90
2018-07-25T08:42:52.862Z,79.80
2018-07-25T08:45:23.199Z,80.80
2018-07-25T08:47:53.771Z,79.60
2018-07-25T08:50:24.021Z,80.10
2018-07-25T08:52:54.395Z,79.40
2018-07-25T08:55:24.453Z,80.10
2018-07-25T08:57:55.039Z,80.50
2018-07-25T09:00:25.414Z,80.40
2018-07-25T09:02:55.693Z,80.20
2018-07-25T09:05:26.115Z,80.50
2018-07-25T09:08:00.136Z,81.50
2018-07-25T09:10:30.333Z,80.90
2018-07-25T09:13:00.964Z,78.80
2018-07-25T09:15:31.525Z,78.40
2018-07-25T09:18:02.205Z,77.90
2018-07-25T09:20:32.901Z,74.70
2018-07-25T09:23:03.765Z,74.40
2018-07-25T09:25:35.743Z,75.30
2018-07-25T09:28:06.092Z,73.70
2018-07-25T09:30:36.220Z,70.50
2018-07-25T09:35:36.761Z,67.60
2018-07-25T09:38:07.323Z,66.10
2018-07-25T09:40:37.802Z,66.40
2018-07-25T09:43:08.439Z,66.40
2018-07-25T09:45:38.952Z,67.40
2018-07-25T09:48:09.432Z,67.30
2018-07-25T09:50:39.948Z,65.80
2018-07-25T09:53:10.515Z,66.90
2018-07-25T09:55:40.859Z,68.30
2018-07-25T09:58:11.322Z,66.00
2018-07-25T10:03:20.162Z,66.70
2018-07-25T10:05:50.684Z,67.50
2018-07-25T10:08:21.165Z,67.10
2018-07-25T10:10:51.717Z,65.80
2018-07-25T10:13:22.210Z,64.70
2018-07-25T10:15:52.876Z,64.60
2018-07-25T10:18:22.989Z,62.70
2018-07-25T10:20:53.108Z,61.10
2018-07-25T10:23:23.574Z,62.70
2018-07-25T10:25:54.146Z,61.60
2018-07-25T10:30:56.174Z,60.90
2018-07-25T10:33:26.676Z,61.00
2018-07-25T10:35:56.997Z,60.80
2018-07-25T10:38:27.842Z,59.80
2018-07-25T10:40:58.224Z,60.00
2018-07-25T10:43:28.765Z,58.60
2018-07-25T10:45:59.063Z,57.20
2018-07-25T10:48:29.698Z,56.50
2018-07-25T10:51:00.245Z,57.00
2018-07-25T10:53:30.857Z,57.10
2018-07-25T10:56:01.435Z,56.40
2018-07-25T10:58:31.801Z,58.10
2018-07-25T11:01:02.079Z,58.20
2018-07-25T11:03:32.760Z,57.80
2018-07-25T11:06:03.142Z,57.30
2018-07-25T11:08:33.506Z,56.90
2018-07-25T11:11:04.536Z,57.10
2018-07-25T11:13:35.046Z,56.00
2018-07-25T11:16:05.285Z,55.60
2018-07-25T11:18:35.933Z,54.20
2018-07-25T11:21:06.702Z,55.30
2018-07-25T11:23:36.980Z,52.90
2018-07-25T11:26:07.452Z,52.00
2018-07-25T11:28:38.462Z,52.30
2018-07-25T11:31:09.122Z,51.10
2018-07-25T11:33:39.719Z,52.00
2018-07-25T11:36:10.578Z,52.20
2018-07-25T11:38:41.025Z,51.80
2018-07-25T11:41:11.628Z,50.20
2018-07-25T11:43:42.545Z,49.30
2018-07-25T11:46:12.951Z,50.80
2018-07-25T11:48:43.377Z,50.60
2018-07-25T11:53:44.028Z,49.80
2018-07-25T11:56:17.993Z,49.20
2018-07-25T11:58:48.556Z,48.30
2018-07-25T12:01:20.397Z,48.30
2018-07-25T12:03:51.144Z,48.20
2018-07-25T12:06:21.527Z,45.80
2018-07-25T12:08:52.437Z,47.20
2018-07-25T12:11:23.030Z,48.50
2018-07-25T12:13:53.585Z,47.90
2018-07-25T12:16:24.506Z,46.60
2018-07-25T12:18:55.080Z,45.70
2018-07-25T12:21:25.722Z,47.00
2018-07-25T12:23:56.438Z,46.80
2018-07-25T12:26:27.370Z,44.90
2018-07-25T12:28:57.830Z,46.30
2018-07-25T12:31:29.421Z,45.20
2018-07-25T12:33:59.949Z,45.80
2018-07-25T12:36:30.480Z,46.30
2018-07-25T12:39:00.882Z,48.10
2018-07-25T12:44:01.326Z,47.00
2018-07-25T12:46:31.897Z,48.00
2018-07-25T12:49:02.322Z,45.60
2018-07-25T12:51:32.817Z,46.50
2018-07-25T12:54:03.889Z,46.50
2018-07-25T12:56:34.601Z,47.00
2018-07-25T13:01:35.549Z,47.70
2018-07-25T13:04:06.340Z,47.80
2018-07-25T13:06:36.780Z,47.40
2018-07-25T13:09:10.900Z,47.60
2018-07-25T13:11:41.618Z,47.20
2018-07-25T13:16:42.277Z,47.20
2018-07-25T13:19:12.629Z,47.20
2018-07-25T13:21:43.330Z,47.40
2018-07-25T13:24:13.953Z,47.50
2018-07-25T13:26:44.601Z,46.40
2018-07-25T13:29:15.225Z,45.40
2018-07-25T13:31:45.919Z,46.30
2018-07-25T13:34:16.525Z,47.10
2018-07-25T13:36:47.169Z,46.40
2018-07-25T13:39:17.632Z,46.50
2018-07-25T13:41:48.889Z,47.30
2018-07-25T13:44:19.424Z,47.80
2018-07-25T13:46:49.912Z,48.40
2018-07-25T13:49:20.300Z,48.30
2018-07-25T13:51:51.169Z,48.60
2018-07-25T13:54:23.795Z,48.70
2018-07-25T13:56:54.211Z,47.80
2018-07-25T13:59:24.895Z,48.80
2018-07-25T14:01:55.290Z,49.20
2018-07-25T14:04:25.791Z,49.20
2018-07-25T14:06:56.270Z,49.30
2018-07-25T14:09:27.088Z,48.90
2018-07-25T14:11:57.598Z,49.30
2018-07-25T14:14:27.911Z,48.90
2018-07-25T14:16:58.321Z,49.40
2018-07-25T14:19:29.265Z,49.40
2018-07-25T14:21:59.577Z,49.90
2018-07-25T14:24:29.886Z,49.80
2018-07-25T14:27:00.273Z,49.20
2018-07-25T14:29:30.947Z,49.20
2018-07-25T14:32:01.295Z,49.80
2018-07-25T14:34:31.722Z,49.50
2018-07-25T14:37:02.622Z,49.30
2018-07-25T14:39:33.277Z,48.10
2018-07-25T14:42:04.374Z,47.80
2018-07-25T14:44:35.285Z,45.70
2018-07-25T14:47:05.819Z,46.20
2018-07-25T14:49:36.409Z,46.30
2018-07-25T14:54:37.370Z,45.80
2018-07-25T14:57:07.803Z,45.00
2018-07-25T14:59:38.672Z,45.90
2018-07-25T15:02:09.139Z,45.90
2018-07-25T15:04:39.922Z,46.30
2018-07-25T15:07:10.641Z,46.50
2018-07-25T15:09:44.226Z,47.40
2018-07-25T15:12:19.620Z,47.70
2018-07-25T15:14:49.970Z,49.70
2018-07-25T15:17:22.841Z,50.90
2018-07-25T15:19:53.233Z,51.50
2018-07-25T15:22:24.009Z,52.10
2018-07-25T15:24:54.381Z,52.70
2018-07-25T15:27:25.170Z,53.80
2018-07-25T15:29:56.045Z,54.80
2018-07-25T15:32:27.683Z,55.90
2018-07-25T15:34:58.357Z,57.40
2018-07-25T15:37:28.957Z,58.60
2018-07-25T15:39:59.485Z,60.00
2018-07-25T15:42:30.477Z,60.20
2018-07-25T15:45:01.049Z,60.70
2018-07-25T15:47:32.076Z,61.10
2018-07-25T15:50:02.718Z,62.30
2018-07-25T15:52:33.617Z,62.90
2018-07-25T15:55:04.160Z,64.50
2018-07-25T15:57:35.194Z,65.30
2018-07-25T16:00:07.735Z,64.50
2018-07-25T16:05:08.673Z,65.00
2018-07-25T16:07:39.738Z,64.40
2018-07-25T16:10:10.285Z,65.20
2018-07-25T16:12:41.221Z,65.60
2018-07-25T16:15:11.596Z,66.40
2018-07-25T16:20:12.348Z,67.70
2018-07-25T16:22:42.825Z,68.70
2018-07-25T16:25:13.367Z,70.10
2018-07-25T16:27:43.997Z,71.70
2018-07-25T16:30:14.650Z,73.00
2018-07-25T16:32:45.167Z,73.50
2018-07-25T16:35:15.553Z,76.40
2018-07-25T16:37:46.046Z,77.20
2018-07-25T16:40:17.120Z,78.00
2018-07-25T16:42:47.342Z,78.30
2018-07-25T16:45:17.880Z,79.30
2018-07-25T16:47:48.266Z,79.60
2018-07-25T16:50:19.160Z,79.00
2018-07-25T16:52:49.848Z,79.00
2018-07-25T16:55:20.909Z,78.80
2018-07-25T16:57:51.737Z,78.20
2018-07-25T17:00:22.173Z,78.80
2018-07-25T17:02:52.912Z,78.50
2018-07-25T17:05:24.053Z,78.20
2018-07-25T17:07:54.593Z,78.40
2018-07-25T17:10:25.473Z,80.70
2018-07-25T17:12:56.484Z,81.40
2018-07-25T17:15:27.347Z,83.20
2018-07-25T17:17:58.753Z,87.70
2018-07-25T17:20:29.785Z,91.70
2018-07-25T17:23:00.525Z,92.70
2018-07-25T17:25:31.234Z,95.00
2018-07-25T17:28:02.335Z,96.20
2018-07-25T17:30:32.885Z,99.60
2018-07-25T17:33:03.493Z,99.90
2018-07-25T17:35:34.092Z,99.90
2018-07-25T17:38:05.289Z,99.90
2018-07-25T17:40:36.490Z,99.90
2018-07-25T17:43:07.603Z,99.90
2018-07-25T17:45:38.214Z,99.90
2018-07-25T17:48:08.801Z,99.90
2018-07-25T17:50:39.301Z,99.90
2018-07-25T17:53:10.354Z,99.90
2018-07-25T17:55:41.641Z,99.90
2018-07-25T17:58:12.275Z,99.90
2018-07-25T18:00:43.006Z,99.90
2018-07-25T18:03:13.385Z,99.90
2018-07-25T18:05:45.209Z,99.90
2018-07-25T18:08:15.709Z,99.90
2018-07-25T18:10:46.661Z,99.90
2018-07-25T18:13:22.908Z,99.90
2018-07-25T18:15:53.528Z,99.90
2018-07-25T18:18:26.141Z,99.90
2018-07-25T18:20:56.732Z,99.90
2018-07-25T18:23:27.251Z,99.90
2018-07-25T18:25:57.803Z,99.90
2018-07-25T18:28:28.755Z,99.90
2018-07-25T18:30:59.345Z,99.90
2018-07-25T18:33:30.149Z,99.90
2018-07-25T18:36:00.714Z,99.90
2018-07-25T18:38:32.019Z,99.90
2018-07-25T18:41:02.821Z,99.90
2018-07-25T18:43:33.225Z,99.90
2018-07-25T18:46:04.014Z,99.90
2018-07-25T18:48:34.369Z,99.90
2018-07-25T18:51:04.681Z,99.90
2018-07-25T18:53:37.097Z,99.90
2018-07-25T18:56:07.988Z,99.90
2018-07-25T18:58:38.259Z,99.90
2018-07-25T19:01:08.955Z,99.90
2018-07-25T19:03:39.210Z,99.90
2018-07-25T19:06:09.984Z,99.90
2018-07-25T19:08:40.390Z,99.90
2018-07-25T19:13:47.673Z,99.90
2018-07-25T19:16:18.257Z,99.90
2018-07-25T19:18:49.371Z,99.90
2018-07-25T19:21:20.229Z,99.90
2018-07-25T19:23:51.208Z,99.90
2018-07-25T19:26:22.319Z,99.90
2018-07-25T19:28:53.418Z,99.90
2018-07-25T19:31:25.292Z,99.90
2018-07-25T19:33:56.022Z,99.90
2018-07-25T19:36:26.673Z,99.90
2018-07-25T19:38:57.296Z,99.90
2018-07-25T19:41:28.033Z,99.90
2018-07-25T19:43:58.736Z,99.90
2018-07-25T19:46:30.647Z,99.90
2018-07-25T19:49:01.299Z,99.90
2018-07-25T19:51:32.287Z,99.90
2018-07-25T19:54:05.559Z,99.90
2018-07-25T19:56:36.266Z,99.90
2018-07-25T19:59:07.102Z,99.90
2018-07-25T20:01:37.778Z,99.90
2018-07-25T20:04:08.346Z,99.90
2018-07-25T20:06:38.937Z,99.90
2018-07-25T20:09:10.073Z,99.90
2018-07-25T20:11:40.769Z,99.90
2018-07-25T20:14:18.518Z,99.90
2018-07-25T20:16:49.294Z,99.90
2018-07-25T20:19:20.195Z,99.90
2018-07-25T20:21:51.036Z,99.90
2018-07-25T20:24:21.550Z,99.90
2018-07-25T20:26:52.238Z,99.90
2018-07-25T20:29:22.653Z,99.90
2018-07-25T20:31:53.533Z,99.90
2018-07-25T20:34:24.237Z,99.90
2018-07-25T20:36:54.794Z,99.90
2018-07-25T20:39:25.329Z,99.90
2018-07-25T20:41:55.926Z,99.90
2018-07-25T20:44:26.567Z,99.90
2018-07-25T20:46:57.188Z,99.90
2018-07-25T20:49:28.129Z,99.90
2018-07-25T20:51:58.783Z,99.90
2018-07-25T20:54:29.730Z,99.90
2018-07-25T20:57:00.528Z,99.90
2018-07-25T20:59:31.226Z,99.90
2018-07-25T21:02:01.604Z,99.90
2018-07-25T21:04:32.216Z,99.90
2018-07-25T21:07:03.012Z,99.90
2018-07-25T21:09:33.988Z,99.90
2018-07-25T21:12:04.341Z,99.90
2018-07-25T21:14:34.878Z,99.90
2018-07-25T21:17:05.294Z,99.90
2018-07-25T21:19:35.837Z,99.90
2018-07-25T21:22:06.705Z,99.90
2018-07-25T21:24:37.300Z,99.90
2018-07-25T21:27:07.858Z,99.90
2018-07-25T21:29:38.365Z,99.90
2018-07-25T21:32:09.332Z,99.90
2018-07-25T21:34:39.797Z,99.90
2018-07-25T21:37:10.330Z,99.90
2018-07-25T21:39:40.954Z,99.90
2018-07-25T21:42:11.777Z,99.90
2018-07-25T21:44:42.169Z,99.90
2018-07-25T21:47:12.657Z,99.90
2018-07-25T21:49:43.232Z,99.90
2018-07-25T21:52:13.735Z,99.90
2018-07-25T21:54:44.614Z,99.90
2018-07-25T21:57:15.644Z,99.90
2018-07-25T21:59:46.241Z,99.90
2018-07-25T22:02:16.645Z,99.90
2018-07-25T22:04:47.150Z,99.90
2018-07-25T22:07:17.993Z,99.90
2018-07-25T22:09:48.598Z,99.90
2018-07-25T22:12:19.040Z,99.90
2018-07-25T22:14:49.591Z,99.90
2018-07-25T22:17:20.523Z,99.90
2018-07-25T22:19:50.869Z,99.90
2018-07-25T22:22:21.093Z,99.90
2018-07-25T22:24:51.657Z,99.90
2018-07-25T22:27:22.137Z,99.90
2018-07-25T22:29:52.620Z,99.90
2018-07-25T22:32:23.829Z,99.90
2018-07-25T22:34:54.389Z,99.90
2018-07-25T22:37:24.734Z,99.90
2018-07-25T22:39:54.953Z,99.90
2018-07-25T22:42:25.984Z,99.90
2018-07-25T22:47:26.329Z,99.90
2018-07-25T22:49:56.884Z,99.90
2018-07-25T22:52:27.347Z,99.90
2018-07-25T22:54:57.673Z,99.90
2018-07-25T22:57:29.460Z,99.90
2018-07-25T22:59:59.785Z,99.90
2018-07-25T23:02:30.277Z,99.90
2018-07-25T23:05:00.809Z,99.90
2018-07-25T23:07:31.738Z,99.90
2018-07-25T23:10:02.254Z,99.90
2018-07-25T23:12:32.589Z,99.90
2018-07-25T23:15:03.221Z,99.90
2018-07-25T23:17:33.798Z,99.90
2018-07-25T23:20:04.289Z,99.90
2018-07-25T23:22:45.763Z,99.90
2018-07-25T23:25:16.414Z,99.90
2018-07-25T23:27:46.869Z,99.90
2018-07-25T23:30:18.041Z,99.90
2018-07-25T23:32:49.333Z,99.90
2018-07-25T23:35:20.090Z,99.90
2018-07-25T23:37:51.235Z,99.90
2018-07-25T23:40:21.828Z,99.90
2018-07-25T23:45:22.980Z,99.90
2018-07-25T23:47:53.499Z,99.90
2018-07-25T23:50:23.907Z,99.90
2018-07-25T23:52:54.717Z,99.90
2018-07-25T23:55:25.373Z,99.90
2018-07-25T23:57:55.771Z,99.90
